KSIY/SIY METAR and TAF weather

Enter ICAO airport designator
Station Type Date Time Source
KSIY METAR 2022/01/28 23:53 UTC NOAA

KSIY 282353Z AUTO 20003KT 10SM CLR 12/M08 A3031 RMK AO2 SLP288 T01171078 10117 20006 56023


Station Type Date Time Source
KSIY Decoded METAR 2022/01/28 23:53 UTC NOAA

MONTAGUE SISKIYOU COUNTY, CA, United States (KSIY) 41-46N 122-28W
Jan 28, 2022 - 06:53 PM EST / 2022.01.28 2353 UTC
Wind: from the SSW (200 degrees) at 3 MPH (3 KT):0
Visibility: 10 mile(s):0
Sky conditions: clear
Temperature: 53.1 F (11.7 C)
Dew Point: 18.0 F (-7.8 C)
Relative Humidity: 24%
Pressure (altimeter): 30.31 in. Hg (1026 hPa)
Pressure tendency: 0.07 inches (2.3 hPa) lower than three hours ago
ob: KSIY 282353Z AUTO 20003KT 10SM CLR 12/M08 A3031 RMK AO2 SLP288 T01171078 10117 20006 56023
cycle: 0

Station Type Date Time Source
KSIY TAF UTC NOAA

Error!

Example: see airport list